createdAt,value
2018-01-27T00:02:19.242Z,85.01
2018-01-27T00:04:46.897Z,85.07
2018-01-27T00:07:14.390Z,84.90
2018-01-27T00:09:41.998Z,84.25
2018-01-27T00:12:09.473Z,84.51
2018-01-27T00:14:37.124Z,84.94
2018-01-27T00:17:04.566Z,85.04
2018-01-27T00:19:32.027Z,84.21
2018-01-27T00:21:59.511Z,84.55
2018-01-27T00:24:27.054Z,84.46
2018-01-27T00:26:54.573Z,84.33
2018-01-27T00:29:22.070Z,83.84
2018-01-27T00:31:49.505Z,83.64
2018-01-27T00:34:17.009Z,82.65
2018-01-27T00:36:44.474Z,83.11
2018-01-27T00:39:11.916Z,83.96
2018-01-27T00:41:39.612Z,83.62
2018-01-27T00:44:07.101Z,82.85
2018-01-27T00:46:38.166Z,82.68
2018-01-27T00:49:05.658Z,83.38
2018-01-27T00:51:34.859Z,84.15
2018-01-27T00:54:02.350Z,83.61
2018-01-27T00:56:29.977Z,83.92
2018-01-27T00:58:57.432Z,83.83
2018-01-27T01:01:25.134Z,83.85
2018-01-27T01:03:52.573Z,83.68
2018-01-27T01:06:20.057Z,83.67
2018-01-27T01:08:47.529Z,83.41
2018-01-27T01:11:15.075Z,83.08
2018-01-27T01:13:42.595Z,82.47
2018-01-27T01:16:10.092Z,83.19
2018-01-27T01:18:37.714Z,83.90
2018-01-27T01:21:05.158Z,83.83
2018-01-27T01:23:32.859Z,83.07
2018-01-27T01:26:01.235Z,82.49
2018-01-27T01:28:28.780Z,83.62
2018-01-27T01:30:56.365Z,83.05
2018-01-27T01:33:23.919Z,82.96
2018-01-27T01:35:51.585Z,83.58
2018-01-27T01:38:19.119Z,82.84
2018-01-27T01:40:46.694Z,82.67
2018-01-27T01:43:19.805Z,83.38
2018-01-27T01:45:47.238Z,83.37
2018-01-27T01:48:14.931Z,83.62
2018-01-27T01:50:42.361Z,83.29
2018-01-27T01:53:09.913Z,82.70
2018-01-27T01:55:37.478Z,83.58
2018-01-27T01:58:05.798Z,84.26
2018-01-27T02:00:33.316Z,84.15
2018-01-27T02:03:01.304Z,83.39
2018-01-27T02:05:29.144Z,83.92
2018-01-27T02:07:56.652Z,83.80
2018-01-27T02:10:24.102Z,83.47
2018-01-27T02:12:51.750Z,83.29
2018-01-27T02:15:19.222Z,83.27
2018-01-27T02:17:46.773Z,82.63
2018-01-27T02:20:14.242Z,83.65
2018-01-27T02:22:41.685Z,82.81
2018-01-27T02:25:09.133Z,81.58
2018-01-27T02:27:36.590Z,83.04
2018-01-27T02:30:04.157Z,82.88
2018-01-27T02:32:32.511Z,83.52
2018-01-27T02:34:59.979Z,83.32
2018-01-27T02:37:27.445Z,82.63
2018-01-27T02:39:54.932Z,82.95
2018-01-27T02:42:22.389Z,82.26
2018-01-27T02:44:49.860Z,81.72
2018-01-27T02:47:17.297Z,82.80
2018-01-27T02:49:44.805Z,83.47
2018-01-27T02:52:12.258Z,83.33
2018-01-27T02:54:39.822Z,83.08
2018-01-27T02:57:07.301Z,81.41
2018-01-27T02:59:34.753Z,82.50
2018-01-27T03:02:02.422Z,83.06
2018-01-27T03:04:30.005Z,83.23
2018-01-27T03:06:57.558Z,83.50
2018-01-27T03:09:25.097Z,82.54
2018-01-27T03:11:52.546Z,83.16
2018-01-27T03:14:20.289Z,82.50
2018-01-27T03:16:48.820Z,82.87
2018-01-27T03:19:17.290Z,82.29
2018-01-27T03:21:44.751Z,82.56
2018-01-27T03:24:12.190Z,82.32
2018-01-27T03:26:39.988Z,83.29
2018-01-27T03:29:07.428Z,83.17
2018-01-27T03:31:34.875Z,83.30
2018-01-27T03:34:02.485Z,83.11
2018-01-27T03:36:30.237Z,82.28
2018-01-27T03:38:57.771Z,82.64
2018-01-27T03:41:25.312Z,81.87
2018-01-27T03:43:52.788Z,81.61
2018-01-27T03:46:21.239Z,82.05
2018-01-27T03:48:48.794Z,81.93
2018-01-27T03:51:16.246Z,81.51
2018-01-27T03:53:45.899Z,81.36
2018-01-27T03:56:13.362Z,81.04
2018-01-27T03:58:40.810Z,80.78
2018-01-27T04:01:08.243Z,81.10
2018-01-27T04:03:35.692Z,81.99
2018-01-27T04:06:03.118Z,81.26
2018-01-27T04:08:30.672Z,81.35
2018-01-27T04:10:58.111Z,81.15
2018-01-27T04:13:25.582Z,81.64
2018-01-27T04:15:53.018Z,82.40
2018-01-27T04:18:21.199Z,82.58
2018-01-27T04:20:48.622Z,81.19
2018-01-27T04:23:16.097Z,80.83
2018-01-27T04:25:43.912Z,80.74
2018-01-27T04:28:11.561Z,80.89
2018-01-27T04:30:39.101Z,80.89
2018-01-27T04:33:06.593Z,80.77
2018-01-27T04:35:34.034Z,81.79
2018-01-27T04:38:02.108Z,81.30
2018-01-27T04:40:29.569Z,81.07
2018-01-27T04:42:57.285Z,80.74
2018-01-27T04:45:24.746Z,80.80
2018-01-27T04:47:52.270Z,81.01
2018-01-27T04:50:19.813Z,80.90
2018-01-27T04:52:47.262Z,80.34
2018-01-27T04:55:14.797Z,80.69
2018-01-27T04:57:42.875Z,80.38
2018-01-27T05:00:10.324Z,80.20
2018-01-27T05:02:37.827Z,78.38
2018-01-27T05:05:05.241Z,79.59
2018-01-27T05:07:33.441Z,78.29
2018-01-27T05:10:01.081Z,78.99
2018-01-27T05:12:28.555Z,79.93
2018-01-27T05:14:56.017Z,80.47
2018-01-27T05:17:23.563Z,79.41
2018-01-27T05:19:51.058Z,80.85
2018-01-27T05:22:18.806Z,80.33
2018-01-27T05:24:46.291Z,80.53
2018-01-27T05:27:14.026Z,78.75
2018-01-27T05:29:41.686Z,80.63
2018-01-27T05:32:09.259Z,80.77
2018-01-27T05:34:36.740Z,80.71
2018-01-27T05:37:04.447Z,80.15
2018-01-27T05:39:32.472Z,80.25
2018-01-27T05:42:00.296Z,80.01
2018-01-27T05:44:28.060Z,79.24
2018-01-27T05:46:55.528Z,79.46
2018-01-27T05:49:24.188Z,79.14
2018-01-27T05:51:51.797Z,79.66
2018-01-27T05:54:19.558Z,78.21
2018-01-27T05:56:47.644Z,79.20
2018-01-27T05:59:15.202Z,78.42
2018-01-27T06:01:42.666Z,79.17
2018-01-27T06:04:10.142Z,78.84
2018-01-27T06:06:37.623Z,80.27
2018-01-27T06:09:05.096Z,79.61
2018-01-27T06:11:32.758Z,80.80
2018-01-27T06:14:00.177Z,80.54
2018-01-27T06:16:27.717Z,79.86
2018-01-27T06:18:55.187Z,79.10
2018-01-27T06:21:22.690Z,78.62
2018-01-27T06:23:50.408Z,79.89
2018-01-27T06:26:17.994Z,79.61
2018-01-27T06:28:45.441Z,80.10
2018-01-27T06:31:12.962Z,80.39
2018-01-27T06:33:40.458Z,80.37
2018-01-27T06:36:08.089Z,79.57
2018-01-27T06:38:35.558Z,80.13
2018-01-27T06:41:03.071Z,79.72
2018-01-27T06:43:30.734Z,79.80
2018-01-27T06:45:58.209Z,79.79
2018-01-27T06:48:25.671Z,80.80
2018-01-27T06:50:53.330Z,80.87
2018-01-27T06:53:20.820Z,80.93
2018-01-27T06:55:48.253Z,81.32
2018-01-27T06:58:15.808Z,81.03
2018-01-27T07:00:43.408Z,79.25
2018-01-27T07:03:11.150Z,80.51
2018-01-27T07:05:38.654Z,80.87
2018-01-27T07:08:06.117Z,80.82
2018-01-27T07:10:33.870Z,79.79
2018-01-27T07:13:01.356Z,78.77
2018-01-27T07:15:28.799Z,78.90
2018-01-27T07:17:56.329Z,79.45
2018-01-27T07:20:23.769Z,80.32
2018-01-27T07:22:51.334Z,80.25
2018-01-27T07:25:18.898Z,81.23
2018-01-27T07:27:46.333Z,80.74
2018-01-27T07:30:13.797Z,78.41
2018-01-27T07:32:41.325Z,78.02
2018-01-27T07:35:08.794Z,79.51
2018-01-27T07:37:37.164Z,79.01
2018-01-27T07:40:04.630Z,79.55
2018-01-27T07:42:32.987Z,79.64
2018-01-27T07:45:00.586Z,78.04
2018-01-27T07:47:28.327Z,78.06
2018-01-27T07:49:55.833Z,79.55
2018-01-27T07:52:23.346Z,78.94
2018-01-27T07:54:51.061Z,79.79
2018-01-27T07:57:18.511Z,78.24
2018-01-27T07:59:45.967Z,79.21
2018-01-27T08:02:13.541Z,79.32
2018-01-27T08:04:40.993Z,80.20
2018-01-27T08:07:08.494Z,79.73
2018-01-27T08:09:35.955Z,79.48
2018-01-27T08:12:03.475Z,78.24
2018-01-27T08:14:30.957Z,79.18
2018-01-27T08:16:58.406Z,78.93
2018-01-27T08:19:25.861Z,79.37
2018-01-27T08:21:53.313Z,77.60
2018-01-27T08:24:20.745Z,77.15
2018-01-27T08:26:48.194Z,77.66
2018-01-27T08:29:15.730Z,78.89
2018-01-27T08:31:43.261Z,77.01
2018-01-27T08:34:11.780Z,77.91
2018-01-27T08:36:39.250Z,78.05
2018-01-27T08:39:06.692Z,77.10
2018-01-27T08:41:34.155Z,76.17
2018-01-27T08:44:02.117Z,77.62
2018-01-27T08:46:29.610Z,76.70
2018-01-27T08:48:57.081Z,77.87
2018-01-27T08:51:24.534Z,77.92
2018-01-27T08:53:51.972Z,76.43
2018-01-27T08:56:19.433Z,77.36
2018-01-27T08:58:46.867Z,77.04
2018-01-27T09:01:15.282Z,77.67
2018-01-27T09:03:43.563Z,76.03
2018-01-27T09:06:12.026Z,75.25
2018-01-27T09:08:39.586Z,74.41
2018-01-27T09:11:07.057Z,77.34
2018-01-27T09:13:34.511Z,77.64
2018-01-27T09:16:01.955Z,74.32
2018-01-27T09:18:29.410Z,77.19
2018-01-27T09:20:56.842Z,75.50
2018-01-27T09:23:24.297Z,76.28
2018-01-27T09:25:51.773Z,76.83
2018-01-27T09:28:19.238Z,77.03
2018-01-27T09:30:46.795Z,76.07
2018-01-27T09:33:14.264Z,76.05
2018-01-27T09:35:41.704Z,76.48
2018-01-27T09:38:09.169Z,76.48
2018-01-27T09:40:36.609Z,77.59
2018-01-27T09:43:04.190Z,75.83
2018-01-27T09:45:31.631Z,75.08
2018-01-27T09:47:59.088Z,77.56
2018-01-27T09:50:26.527Z,76.14
2018-01-27T09:52:54.022Z,76.30
2018-01-27T09:55:21.601Z,76.57
2018-01-27T09:57:49.073Z,76.83
2018-01-27T10:00:16.617Z,77.03
2018-01-27T10:02:44.067Z,77.12
2018-01-27T10:05:11.517Z,77.00
2018-01-27T10:07:38.978Z,76.35
2018-01-27T10:10:06.843Z,77.21
2018-01-27T10:12:34.283Z,77.29
2018-01-27T10:15:01.769Z,76.47
2018-01-27T10:17:29.220Z,75.89
2018-01-27T10:19:58.981Z,76.13
2018-01-27T10:22:32.894Z,76.76
2018-01-27T10:25:00.871Z,78.25
2018-01-27T10:27:28.324Z,77.76
2018-01-27T10:29:55.789Z,76.21
2018-01-27T10:32:23.225Z,77.05
2018-01-27T10:34:50.668Z,76.26
2018-01-27T10:37:18.181Z,77.49
2018-01-27T10:39:45.698Z,75.71
2018-01-27T10:42:13.139Z,76.36
2018-01-27T10:44:40.607Z,76.98
2018-01-27T10:47:08.303Z,76.25
2018-01-27T10:49:35.783Z,77.00
2018-01-27T10:52:05.577Z,76.63
2018-01-27T10:54:33.123Z,76.01
2018-01-27T10:57:00.594Z,76.23
2018-01-27T10:59:28.167Z,76.28
2018-01-27T11:01:55.633Z,77.04
2018-01-27T11:04:23.912Z,76.23
2018-01-27T11:06:51.353Z,76.94
2018-01-27T11:09:18.796Z,76.82
2018-01-27T11:11:46.250Z,75.43
2018-01-27T11:14:13.713Z,76.67
2018-01-27T11:16:41.466Z,76.01
2018-01-27T11:19:09.349Z,77.04
2018-01-27T11:21:36.812Z,76.41
2018-01-27T11:24:05.378Z,76.99
2018-01-27T11:26:32.938Z,76.66
2018-01-27T11:29:00.386Z,75.30
2018-01-27T11:31:27.844Z,76.41
2018-01-27T11:33:55.283Z,76.18
2018-01-27T11:36:22.754Z,75.43
2018-01-27T11:38:50.191Z,76.09
2018-01-27T11:41:17.648Z,76.35
2018-01-27T11:43:45.087Z,76.29
2018-01-27T11:46:12.564Z,76.90
2018-01-27T11:48:40.130Z,76.69
2018-01-27T11:51:07.893Z,75.73
2018-01-27T11:53:35.378Z,75.91
2018-01-27T11:56:02.817Z,75.63
2018-01-27T11:58:30.291Z,75.46
2018-01-27T12:00:57.729Z,76.29
2018-01-27T12:03:25.207Z,77.09
2018-01-27T12:05:52.729Z,75.89
2018-01-27T12:08:20.196Z,76.89
2018-01-27T12:10:47.679Z,76.96
2018-01-27T12:13:15.130Z,78.11
2018-01-27T12:15:42.580Z,76.74
2018-01-27T12:18:10.142Z,76.43
2018-01-27T12:20:37.593Z,75.93
2018-01-27T12:23:05.050Z,76.57
2018-01-27T12:25:32.500Z,76.24
2018-01-27T12:27:59.955Z,76.76
2018-01-27T12:30:27.428Z,77.99
2018-01-27T12:32:54.887Z,76.30
2018-01-27T12:35:22.327Z,75.57
2018-01-27T12:37:49.771Z,75.45
2018-01-27T12:40:17.221Z,76.53
2018-01-27T12:42:44.666Z,76.15
2018-01-27T12:45:12.122Z,76.80
2018-01-27T12:47:39.576Z,77.07
2018-01-27T12:50:07.029Z,77.28
2018-01-27T12:52:34.617Z,77.16
2018-01-27T12:55:02.342Z,77.61
2018-01-27T12:57:30.974Z,77.62
2018-01-27T12:59:58.426Z,76.67
2018-01-27T13:02:25.925Z,76.52
2018-01-27T13:04:53.385Z,77.79
2018-01-27T13:07:20.844Z,77.28
2018-01-27T13:09:49.141Z,76.36
2018-01-27T13:12:16.588Z,77.05
2018-01-27T13:14:44.033Z,77.03
2018-01-27T13:17:11.505Z,76.83
2018-01-27T13:19:39.219Z,76.48
2018-01-27T13:22:06.694Z,77.82
2018-01-27T13:24:34.855Z,77.74
2018-01-27T13:27:02.390Z,78.29
2018-01-27T13:29:29.846Z,77.66
2018-01-27T13:31:57.358Z,76.99
2018-01-27T13:34:24.825Z,76.96
2018-01-27T13:36:52.652Z,77.60
2018-01-27T13:39:20.110Z,77.82
2018-01-27T13:41:48.157Z,78.10
2018-01-27T13:44:15.585Z,77.97
2018-01-27T13:46:43.106Z,78.65
2018-01-27T13:49:10.637Z,78.54
2018-01-27T13:51:38.099Z,77.82
2018-01-27T13:54:05.537Z,79.16
2018-01-27T13:56:32.970Z,77.86
2018-01-27T13:59:00.525Z,78.56
2018-01-27T14:01:28.196Z,78.24
2018-01-27T14:03:55.672Z,78.72
2018-01-27T14:06:23.236Z,78.61
2018-01-27T14:08:51.015Z,79.85
2018-01-27T14:11:18.482Z,79.57
2018-01-27T14:13:45.961Z,79.04
2018-01-27T14:16:13.399Z,80.10
2018-01-27T14:18:40.919Z,79.70
2018-01-27T14:21:08.362Z,79.82
2018-01-27T14:23:36.144Z,80.01
2018-01-27T14:26:03.637Z,78.94
2018-01-27T14:28:31.087Z,78.86
2018-01-27T14:30:58.544Z,79.59
2018-01-27T14:33:26.141Z,79.73
2018-01-27T14:35:53.590Z,79.77
2018-01-27T14:38:21.097Z,80.04
2018-01-27T14:40:48.553Z,80.86
2018-01-27T14:43:16.110Z,81.45
2018-01-27T14:45:43.658Z,81.18
2018-01-27T14:48:11.136Z,79.72
2018-01-27T14:50:38.642Z,80.02
2018-01-27T14:53:06.096Z,80.68
2018-01-27T14:55:33.594Z,79.56
2018-01-27T14:58:01.048Z,79.63
2018-01-27T15:00:28.505Z,78.96
2018-01-27T15:02:55.968Z,79.07
2018-01-27T15:05:23.422Z,80.30
2018-01-27T15:07:50.907Z,81.29
2018-01-27T15:10:18.362Z,80.80
2018-01-27T15:12:45.814Z,81.09
2018-01-27T15:15:13.261Z,82.26
2018-01-27T15:17:40.716Z,82.47
2018-01-27T15:20:08.181Z,81.87
2018-01-27T15:22:35.620Z,80.88
2018-01-27T15:25:03.087Z,80.78
2018-01-27T15:27:30.598Z,80.01
2018-01-27T15:29:58.057Z,79.62
2018-01-27T15:32:25.511Z,80.02
2018-01-27T15:34:53.023Z,80.05
2018-01-27T15:37:20.598Z,80.87
2018-01-27T15:39:48.120Z,81.99
2018-01-27T15:42:15.561Z,81.75
2018-01-27T15:44:43.378Z,80.71
2018-01-27T15:47:10.837Z,81.40
2018-01-27T15:49:38.284Z,81.81
2018-01-27T15:52:05.729Z,81.85
2018-01-27T15:54:33.231Z,82.49
2018-01-27T15:57:00.678Z,81.96
2018-01-27T15:59:28.117Z,80.90
2018-01-27T16:01:55.576Z,81.59
2018-01-27T16:04:23.016Z,81.94
2018-01-27T16:06:50.529Z,80.76
2018-01-27T16:09:18.036Z,82.42
2018-01-27T16:11:49.909Z,81.81
2018-01-27T16:14:17.394Z,84.15
2018-01-27T16:16:44.845Z,82.85
2018-01-27T16:19:12.338Z,82.22
2018-01-27T16:21:39.810Z,82.56
2018-01-27T16:24:07.261Z,83.44
2018-01-27T16:26:35.650Z,82.50
2018-01-27T16:29:03.085Z,81.47
2018-01-27T16:31:31.428Z,82.18
2018-01-27T16:33:58.890Z,82.77
2018-01-27T16:36:26.351Z,83.06
2018-01-27T16:38:53.797Z,83.48
2018-01-27T16:41:21.273Z,83.60
2018-01-27T16:43:48.749Z,83.49
2018-01-27T16:46:16.217Z,83.96
2018-01-27T16:48:43.697Z,83.58
2018-01-27T16:51:11.154Z,82.44
2018-01-27T16:53:38.630Z,83.50
2018-01-27T16:56:06.081Z,83.68
2018-01-27T16:58:35.125Z,82.91
2018-01-27T17:01:02.932Z,82.03
2018-01-27T17:03:30.397Z,83.46
2018-01-27T17:05:57.878Z,84.48
2018-01-27T17:08:25.356Z,84.29
2018-01-27T17:10:52.844Z,84.02
2018-01-27T17:13:20.302Z,83.67
2018-01-27T17:15:49.049Z,82.92
2018-01-27T17:18:16.506Z,83.91
2018-01-27T17:20:43.941Z,83.82
2018-01-27T17:23:11.393Z,83.33
2018-01-27T17:25:38.986Z,82.85
2018-01-27T17:28:06.450Z,82.76
2018-01-27T17:30:34.166Z,83.43
2018-01-27T17:33:01.613Z,83.80
2018-01-27T17:35:29.150Z,83.68
2018-01-27T17:37:56.606Z,83.46
2018-01-27T17:40:24.042Z,83.80
2018-01-27T17:42:53.487Z,83.92
2018-01-27T17:45:20.924Z,84.50
2018-01-27T17:47:48.395Z,84.15
2018-01-27T17:50:15.831Z,83.82
2018-01-27T17:52:43.269Z,84.45
2018-01-27T17:55:10.709Z,84.40
2018-01-27T17:57:38.167Z,83.88
2018-01-27T18:00:06.118Z,84.55
2018-01-27T18:02:33.581Z,83.61
2018-01-27T18:05:01.046Z,84.12
2018-01-27T18:07:28.494Z,83.83
2018-01-27T18:09:56.918Z,84.82
2018-01-27T18:12:24.346Z,84.37
2018-01-27T18:14:51.813Z,84.85
2018-01-27T18:17:19.248Z,85.42
2018-01-27T18:19:46.758Z,84.87
2018-01-27T18:22:14.186Z,85.63
2018-01-27T18:24:41.669Z,85.28
2018-01-27T18:27:09.126Z,85.88
2018-01-27T18:29:36.743Z,87.00
2018-01-27T18:32:04.304Z,87.46
2018-01-27T18:34:31.788Z,87.27
2018-01-27T18:36:59.785Z,86.65
2018-01-27T18:39:27.355Z,85.49
2018-01-27T18:41:56.496Z,86.04
2018-01-27T18:44:23.950Z,85.94
2018-01-27T18:46:51.585Z,87.22
2018-01-27T18:49:19.057Z,85.65
2018-01-27T18:51:46.588Z,85.46
2018-01-27T18:54:14.062Z,85.10
2018-01-27T18:56:41.514Z,84.96
2018-01-27T18:59:08.977Z,84.72
2018-01-27T19:01:46.337Z,85.55
2018-01-27T19:04:13.788Z,85.79
2018-01-27T19:06:42.339Z,86.21
2018-01-27T19:09:09.844Z,86.00
2018-01-27T19:11:38.385Z,85.46
2018-01-27T19:14:08.060Z,85.31
2018-01-27T19:16:36.530Z,85.36
2018-01-27T19:19:04.527Z,85.73
2018-01-27T19:21:34.758Z,85.29
2018-01-27T19:24:05.877Z,84.54
2018-01-27T19:26:33.500Z,83.79
2018-01-27T19:29:00.941Z,84.41
2018-01-27T19:31:28.392Z,84.50
2018-01-27T19:33:55.944Z,84.79
2018-01-27T19:36:23.434Z,85.57
2018-01-27T19:38:51.850Z,85.71
2018-01-27T19:41:19.318Z,84.16
2018-01-27T19:43:46.849Z,84.62
2018-01-27T19:46:14.334Z,84.59
2018-01-27T19:48:41.816Z,85.13
2018-01-27T19:51:09.505Z,85.79
2018-01-27T19:53:38.858Z,85.70
2018-01-27T19:56:07.365Z,85.36
2018-01-27T19:58:35.380Z,85.23
2018-01-27T20:01:03.256Z,86.10
2018-01-27T20:03:30.803Z,85.73
2018-01-27T20:05:58.236Z,85.58
2018-01-27T20:08:25.888Z,84.72
2018-01-27T20:10:53.680Z,85.23
2018-01-27T20:13:21.271Z,85.41
2018-01-27T20:15:49.006Z,85.50
2018-01-27T20:18:16.846Z,85.18
2018-01-27T20:20:44.309Z,85.27
2018-01-27T20:23:12.773Z,84.90
2018-01-27T20:25:40.232Z,85.36
2018-01-27T20:28:07.741Z,84.77
2018-01-27T20:30:35.623Z,84.97
2018-01-27T20:33:03.129Z,85.75
2018-01-27T20:35:33.282Z,85.04
2018-01-27T20:38:00.730Z,85.87
2018-01-27T20:40:28.180Z,86.33
2018-01-27T20:42:55.664Z,85.84
2018-01-27T20:45:23.214Z,85.80
2018-01-27T20:47:50.799Z,86.00
2018-01-27T20:50:18.302Z,85.57
2018-01-27T20:52:45.772Z,85.54
2018-01-27T20:55:13.276Z,85.28
2018-01-27T20:57:40.715Z,86.14
2018-01-27T21:00:08.212Z,86.24
2018-01-27T21:02:35.690Z,86.03
2018-01-27T21:05:03.151Z,86.00
2018-01-27T21:07:30.586Z,86.24
2018-01-27T21:09:58.270Z,86.81
2018-01-27T21:12:25.696Z,86.08
2018-01-27T21:14:55.197Z,86.77
2018-01-27T21:17:22.677Z,86.13
2018-01-27T21:19:50.135Z,86.05
2018-01-27T21:22:17.593Z,86.41
2018-01-27T21:24:45.034Z,85.98
2018-01-27T21:27:12.484Z,85.59
2018-01-27T21:29:39.921Z,85.00
2018-01-27T21:32:07.365Z,85.69
2018-01-27T21:34:34.801Z,85.83
2018-01-27T21:37:02.267Z,85.47
2018-01-27T21:39:29.697Z,85.37
2018-01-27T21:41:57.147Z,85.55
2018-01-27T21:44:24.623Z,85.46
2018-01-27T21:46:52.079Z,85.86
2018-01-27T21:49:19.519Z,85.81
2018-01-27T21:51:47.010Z,85.36
2018-01-27T21:54:14.438Z,85.60
2018-01-27T21:56:41.904Z,86.03
2018-01-27T21:59:09.367Z,85.66
2018-01-27T22:01:37.354Z,85.89
2018-01-27T22:04:04.981Z,86.21
2018-01-27T22:06:32.424Z,86.11
2018-01-27T22:08:59.885Z,85.57
2018-01-27T22:11:27.321Z,86.54
2018-01-27T22:13:54.785Z,85.87
2018-01-27T22:16:22.238Z,85.49
2018-01-27T22:18:49.698Z,86.17
2018-01-27T22:21:17.145Z,86.28
2018-01-27T22:23:44.653Z,85.90
2018-01-27T22:26:12.099Z,86.66
2018-01-27T22:28:39.743Z,86.53
2018-01-27T22:31:07.488Z,86.01
2018-01-27T22:33:34.944Z,86.04
2018-01-27T22:36:02.381Z,86.63
2018-01-27T22:38:29.844Z,86.33
2018-01-27T22:40:57.316Z,86.63
2018-01-27T22:43:24.764Z,86.64
2018-01-27T22:45:52.226Z,86.72
2018-01-27T22:48:19.677Z,87.36
2018-01-27T22:50:47.121Z,87.23
2018-01-27T22:53:14.553Z,86.98
2018-01-27T22:55:42.011Z,87.01
2018-01-27T22:58:09.530Z,86.76
2018-01-27T23:00:37.366Z,87.35
2018-01-27T23:03:04.826Z,87.43
2018-01-27T23:05:32.322Z,87.55
2018-01-27T23:07:59.850Z,87.08
2018-01-27T23:10:27.336Z,87.07
2018-01-27T23:12:54.766Z,87.38
2018-01-27T23:15:22.250Z,87.53
2018-01-27T23:17:49.815Z,87.25
2018-01-27T23:20:17.255Z,87.05
2018-01-27T23:22:44.687Z,87.67
2018-01-27T23:25:12.113Z,87.20
2018-01-27T23:27:39.606Z,87.17
2018-01-27T23:30:07.974Z,86.64
2018-01-27T23:32:36.391Z,86.99
2018-01-27T23:35:03.864Z,87.46
2018-01-27T23:37:31.308Z,87.10
2018-01-27T23:39:58.811Z,87.29
2018-01-27T23:42:26.287Z,86.96
2018-01-27T23:44:53.766Z,86.59
2018-01-27T23:47:21.388Z,86.72
2018-01-27T23:49:48.863Z,86.54
2018-01-27T23:52:16.390Z,87.01
2018-01-27T23:54:43.896Z,87.08
2018-01-27T23:57:16.419Z,86.95
2018-01-27T23:59:43.921Z,86.67
